sensor_id;sensor_type;location;lat;lon;timestamp;P1;durP1;ratioP1;P2;durP2;ratioP2
51006;SDS011;37034;47.886;-3.904;2023-09-07T00:01:08;34.85;;;6.20;;
51006;SDS011;37034;47.886;-3.904;2023-09-07T00:03:33;32.53;;;5.43;;
51006;SDS011;37034;47.886;-3.904;2023-09-07T00:05:59;32.90;;;4.63;;
51006;SDS011;37034;47.886;-3.904;2023-09-07T00:08:25;29.63;;;5.10;;
51006;SDS011;37034;47.886;-3.904;2023-09-07T00:10:51;36.45;;;6.22;;
51006;SDS011;37034;47.886;-3.904;2023-09-07T00:13:16;35.35;;;6.22;;
51006;SDS011;37034;47.886;-3.904;2023-09-07T00:15:42;24.92;;;5.95;;
51006;SDS011;37034;47.886;-3.904;2023-09-07T00:18:08;20.05;;;4.43;;
51006;SDS011;37034;47.886;-3.904;2023-09-07T00:23:00;18.23;;;4.07;;
51006;SDS011;37034;47.886;-3.904;2023-09-07T00:25:28;20.83;;;4.72;;
51006;SDS011;37034;47.886;-3.904;2023-09-07T00:27:53;21.70;;;5.65;;
51006;SDS011;37034;47.886;-3.904;2023-09-07T00:30:19;28.25;;;4.95;;
51006;SDS011;37034;47.886;-3.904;2023-09-07T00:32:45;22.75;;;5.15;;
51006;SDS011;37034;47.886;-3.904;2023-09-07T00:35:10;28.00;;;5.25;;
51006;SDS011;37034;47.886;-3.904;2023-09-07T00:37:37;24.38;;;5.43;;
51006;SDS011;37034;47.886;-3.904;2023-09-07T00:40:03;29.38;;;4.90;;
51006;SDS011;37034;47.886;-3.904;2023-09-07T00:42:33;20.77;;;4.78;;
51006;SDS011;37034;47.886;-3.904;2023-09-07T00:44:59;20.90;;;4.60;;
51006;SDS011;37034;47.886;-3.904;2023-09-07T00:47:25;19.55;;;4.28;;
51006;SDS011;37034;47.886;-3.904;2023-09-07T00:49:51;21.08;;;4.63;;
51006;SDS011;37034;47.886;-3.904;2023-09-07T00:52:16;25.63;;;5.60;;
51006;SDS011;37034;47.886;-3.904;2023-09-07T00:54:43;19.60;;;4.65;;
51006;SDS011;37034;47.886;-3.904;2023-09-07T00:57:09;23.10;;;4.38;;
51006;SDS011;37034;47.886;-3.904;2023-09-07T00:59:35;22.92;;;4.90;;
51006;SDS011;37034;47.886;-3.904;2023-09-07T01:02:01;19.40;;;5.03;;
51006;SDS011;37034;47.886;-3.904;2023-09-07T01:04:27;24.98;;;5.05;;
51006;SDS011;37034;47.886;-3.904;2023-09-07T01:06:57;24.60;;;4.68;;
51006;SDS011;37034;47.886;-3.904;2023-09-07T01:09:49;26.63;;;6.10;;
51006;SDS011;37034;47.886;-3.904;2023-09-07T01:12:17;26.48;;;5.03;;
51006;SDS011;37034;47.886;-3.904;2023-09-07T01:14:43;31.15;;;5.68;;
51006;SDS011;37034;47.886;-3.904;2023-09-07T01:17:09;20.15;;;4.60;;
51006;SDS011;37034;47.886;-3.904;2023-09-07T01:19:36;20.83;;;4.78;;
51006;SDS011;37034;47.886;-3.904;2023-09-07T01:22:02;21.45;;;4.70;;
51006;SDS011;37034;47.886;-3.904;2023-09-07T01:24:29;23.05;;;4.60;;
51006;SDS011;37034;47.886;-3.904;2023-09-07T01:26:58;22.65;;;5.22;;
51006;SDS011;37034;47.886;-3.904;2023-09-07T01:29:25;24.30;;;4.70;;
51006;SDS011;37034;47.886;-3.904;2023-09-07T01:31:54;24.88;;;4.72;;
51006;SDS011;37034;47.886;-3.904;2023-09-07T01:34:20;20.67;;;4.68;;
51006;SDS011;37034;47.886;-3.904;2023-09-07T01:36:45;23.42;;;4.70;;
51006;SDS011;37034;47.886;-3.904;2023-09-07T01:39:11;22.10;;;5.10;;
51006;SDS011;37034;47.886;-3.904;2023-09-07T01:41:37;29.00;;;5.15;;
51006;SDS011;37034;47.886;-3.904;2023-09-07T01:44:02;27.20;;;5.35;;
51006;SDS011;37034;47.886;-3.904;2023-09-07T01:46:28;32.53;;;5.47;;
51006;SDS011;37034;47.886;-3.904;2023-09-07T01:48:54;26.05;;;5.20;;
51006;SDS011;37034;47.886;-3.904;2023-09-07T01:51:19;31.25;;;4.93;;
51006;SDS011;37034;47.886;-3.904;2023-09-07T01:53:48;30.27;;;6.35;;
51006;SDS011;37034;47.886;-3.904;2023-09-07T01:56:17;27.85;;;5.93;;
51006;SDS011;37034;47.886;-3.904;2023-09-07T01:58:42;27.75;;;4.97;;
51006;SDS011;37034;47.886;-3.904;2023-09-07T02:01:19;30.08;;;5.32;;
51006;SDS011;37034;47.886;-3.904;2023-09-07T02:03:46;20.85;;;6.03;;
51006;SDS011;37034;47.886;-3.904;2023-09-07T02:06:11;32.75;;;5.20;;
51006;SDS011;37034;47.886;-3.904;2023-09-07T02:08:37;29.30;;;5.05;;
51006;SDS011;37034;47.886;-3.904;2023-09-07T02:11:05;24.60;;;4.90;;
51006;SDS011;37034;47.886;-3.904;2023-09-07T02:13:30;22.45;;;4.50;;
51006;SDS011;37034;47.886;-3.904;2023-09-07T02:15:56;25.15;;;5.95;;
51006;SDS011;37034;47.886;-3.904;2023-09-07T02:18:22;20.40;;;4.93;;
51006;SDS011;37034;47.886;-3.904;2023-09-07T02:20:47;18.75;;;5.03;;
51006;SDS011;37034;47.886;-3.904;2023-09-07T02:23:13;24.80;;;5.13;;
51006;SDS011;37034;47.886;-3.904;2023-09-07T02:28:08;22.73;;;5.05;;
51006;SDS011;37034;47.886;-3.904;2023-09-07T02:30:33;16.05;;;4.88;;
51006;SDS011;37034;47.886;-3.904;2023-09-07T02:32:59;21.25;;;4.55;;
51006;SDS011;37034;47.886;-3.904;2023-09-07T02:35:25;19.08;;;4.97;;
51006;SDS011;37034;47.886;-3.904;2023-09-07T02:37:50;20.02;;;5.03;;
51006;SDS011;37034;47.886;-3.904;2023-09-07T02:40:16;21.00;;;3.92;;
51006;SDS011;37034;47.886;-3.904;2023-09-07T02:42:42;16.35;;;4.85;;
51006;SDS011;37034;47.886;-3.904;2023-09-07T02:45:10;34.78;;;5.65;;
51006;SDS011;37034;47.886;-3.904;2023-09-07T02:47:37;21.75;;;4.65;;
51006;SDS011;37034;47.886;-3.904;2023-09-07T02:50:03;17.92;;;4.55;;
51006;SDS011;37034;47.886;-3.904;2023-09-07T02:52:30;24.55;;;4.93;;
51006;SDS011;37034;47.886;-3.904;2023-09-07T02:54:56;29.52;;;5.28;;
51006;SDS011;37034;47.886;-3.904;2023-09-07T02:57:21;21.95;;;4.68;;
51006;SDS011;37034;47.886;-3.904;2023-09-07T02:59:47;25.33;;;5.05;;
51006;SDS011;37034;47.886;-3.904;2023-09-07T03:02:12;26.27;;;5.15;;
51006;SDS011;37034;47.886;-3.904;2023-09-07T03:04:38;29.08;;;4.38;;
51006;SDS011;37034;47.886;-3.904;2023-09-07T03:07:04;22.10;;;4.82;;
51006;SDS011;37034;47.886;-3.904;2023-09-07T03:09:29;27.90;;;4.90;;
51006;SDS011;37034;47.886;-3.904;2023-09-07T03:11:55;33.30;;;5.63;;
51006;SDS011;37034;47.886;-3.904;2023-09-07T03:14:21;28.73;;;4.60;;
51006;SDS011;37034;47.886;-3.904;2023-09-07T03:16:46;30.77;;;5.15;;
51006;SDS011;37034;47.886;-3.904;2023-09-07T03:19:15;24.83;;;5.63;;
51006;SDS011;37034;47.886;-3.904;2023-09-07T03:21:40;25.60;;;5.22;;
51006;SDS011;37034;47.886;-3.904;2023-09-07T03:24:06;18.67;;;4.13;;
51006;SDS011;37034;47.886;-3.904;2023-09-07T03:26:32;20.60;;;5.30;;
51006;SDS011;37034;47.886;-3.904;2023-09-07T03:28:58;17.30;;;4.65;;
51006;SDS011;37034;47.886;-3.904;2023-09-07T03:31:23;27.60;;;5.78;;
51006;SDS011;37034;47.886;-3.904;2023-09-07T03:33:49;31.20;;;5.25;;
51006;SDS011;37034;47.886;-3.904;2023-09-07T03:36:15;23.45;;;5.68;;
51006;SDS011;37034;47.886;-3.904;2023-09-07T03:38:41;23.60;;;4.95;;
51006;SDS011;37034;47.886;-3.904;2023-09-07T03:41:07;24.77;;;5.13;;
51006;SDS011;37034;47.886;-3.904;2023-09-07T03:43:33;28.27;;;5.75;;
51006;SDS011;37034;47.886;-3.904;2023-09-07T03:45:59;30.83;;;6.28;;
51006;SDS011;37034;47.886;-3.904;2023-09-07T03:48:24;32.83;;;5.68;;
51006;SDS011;37034;47.886;-3.904;2023-09-07T03:50:50;26.95;;;6.38;;
51006;SDS011;37034;47.886;-3.904;2023-09-07T03:53:16;31.58;;;5.35;;
51006;SDS011;37034;47.886;-3.904;2023-09-07T03:55:42;27.92;;;5.85;;
51006;SDS011;37034;47.886;-3.904;2023-09-07T03:58:09;38.38;;;6.25;;
51006;SDS011;37034;47.886;-3.904;2023-09-07T04:00:39;34.17;;;5.50;;
51006;SDS011;37034;47.886;-3.904;2023-09-07T04:03:07;34.97;;;6.38;;
51006;SDS011;37034;47.886;-3.904;2023-09-07T04:05:33;32.05;;;6.30;;
51006;SDS011;37034;47.886;-3.904;2023-09-07T04:08:02;27.92;;;6.47;;
51006;SDS011;37034;47.886;-3.904;2023-09-07T04:10:28;26.80;;;6.03;;
51006;SDS011;37034;47.886;-3.904;2023-09-07T04:12:54;44.08;;;6.53;;
51006;SDS011;37034;47.886;-3.904;2023-09-07T04:15:19;36.28;;;5.45;;
51006;SDS011;37034;47.886;-3.904;2023-09-07T04:17:45;30.55;;;5.70;;
51006;SDS011;37034;47.886;-3.904;2023-09-07T04:20:11;26.13;;;6.72;;
51006;SDS011;37034;47.886;-3.904;2023-09-07T04:22:37;23.88;;;5.80;;
51006;SDS011;37034;47.886;-3.904;2023-09-07T04:25:04;24.42;;;6.18;;
51006;SDS011;37034;47.886;-3.904;2023-09-07T04:27:30;28.13;;;5.60;;
51006;SDS011;37034;47.886;-3.904;2023-09-07T04:29:56;31.00;;;6.20;;
51006;SDS011;37034;47.886;-3.904;2023-09-07T04:32:21;28.13;;;5.85;;
51006;SDS011;37034;47.886;-3.904;2023-09-07T04:34:47;30.67;;;6.60;;
51006;SDS011;37034;47.886;-3.904;2023-09-07T04:37:18;27.15;;;5.50;;
51006;SDS011;37034;47.886;-3.904;2023-09-07T04:39:43;32.38;;;6.25;;
51006;SDS011;37034;47.886;-3.904;2023-09-07T04:42:09;37.65;;;6.32;;
51006;SDS011;37034;47.886;-3.904;2023-09-07T04:44:35;26.17;;;6.57;;
51006;SDS011;37034;47.886;-3.904;2023-09-07T04:47:00;34.33;;;6.30;;
51006;SDS011;37034;47.886;-3.904;2023-09-07T04:49:26;29.98;;;6.28;;
51006;SDS011;37034;47.886;-3.904;2023-09-07T04:51:56;29.38;;;6.18;;
51006;SDS011;37034;47.886;-3.904;2023-09-07T04:54:22;30.67;;;6.22;;
51006;SDS011;37034;47.886;-3.904;2023-09-07T04:56:48;33.55;;;6.13;;
51006;SDS011;37034;47.886;-3.904;2023-09-07T04:59:13;30.98;;;6.78;;
51006;SDS011;37034;47.886;-3.904;2023-09-07T05:01:39;41.05;;;7.80;;
51006;SDS011;37034;47.886;-3.904;2023-09-07T05:04:05;32.83;;;6.28;;
51006;SDS011;37034;47.886;-3.904;2023-09-07T05:06:30;32.85;;;6.85;;
51006;SDS011;37034;47.886;-3.904;2023-09-07T05:08:59;33.50;;;7.45;;
51006;SDS011;37034;47.886;-3.904;2023-09-07T05:11:24;32.83;;;6.57;;
51006;SDS011;37034;47.886;-3.904;2023-09-07T05:13:50;26.38;;;5.95;;
51006;SDS011;37034;47.886;-3.904;2023-09-07T05:16:16;36.63;;;7.10;;
51006;SDS011;37034;47.886;-3.904;2023-09-07T05:18:41;32.83;;;7.85;;
51006;SDS011;37034;47.886;-3.904;2023-09-07T05:23:37;31.40;;;6.65;;
51006;SDS011;37034;47.886;-3.904;2023-09-07T05:26:02;33.67;;;7.25;;
51006;SDS011;37034;47.886;-3.904;2023-09-07T05:28:28;33.33;;;6.68;;
51006;SDS011;37034;47.886;-3.904;2023-09-07T05:30:53;36.00;;;6.20;;
51006;SDS011;37034;47.886;-3.904;2023-09-07T05:33:19;35.92;;;6.80;;
51006;SDS011;37034;47.886;-3.904;2023-09-07T05:35:45;29.67;;;6.60;;
51006;SDS011;37034;47.886;-3.904;2023-09-07T05:38:10;37.15;;;8.13;;
51006;SDS011;37034;47.886;-3.904;2023-09-07T05:40:40;39.13;;;6.32;;
51006;SDS011;37034;47.886;-3.904;2023-09-07T05:43:07;37.22;;;7.38;;
51006;SDS011;37034;47.886;-3.904;2023-09-07T05:45:34;40.55;;;7.00;;
51006;SDS011;37034;47.886;-3.904;2023-09-07T05:48:01;41.75;;;7.20;;
51006;SDS011;37034;47.886;-3.904;2023-09-07T05:50:29;39.08;;;6.53;;
51006;SDS011;37034;47.886;-3.904;2023-09-07T05:52:55;37.83;;;6.93;;
51006;SDS011;37034;47.886;-3.904;2023-09-07T05:55:20;43.28;;;7.10;;
51006;SDS011;37034;47.886;-3.904;2023-09-07T05:57:46;30.20;;;6.18;;
51006;SDS011;37034;47.886;-3.904;2023-09-07T06:00:14;36.03;;;7.18;;
51006;SDS011;37034;47.886;-3.904;2023-09-07T06:02:41;32.25;;;7.18;;
51006;SDS011;37034;47.886;-3.904;2023-09-07T06:05:08;32.67;;;7.03;;
51006;SDS011;37034;47.886;-3.904;2023-09-07T06:07:35;33.78;;;7.63;;
51006;SDS011;37034;47.886;-3.904;2023-09-07T06:10:01;39.40;;;6.85;;
51006;SDS011;37034;47.886;-3.904;2023-09-07T06:12:27;38.20;;;8.13;;
51006;SDS011;37034;47.886;-3.904;2023-09-07T06:14:52;35.35;;;7.78;;
51006;SDS011;37034;47.886;-3.904;2023-09-07T06:17:18;32.08;;;7.07;;
51006;SDS011;37034;47.886;-3.904;2023-09-07T06:19:44;37.28;;;7.88;;
51006;SDS011;37034;47.886;-3.904;2023-09-07T06:22:11;30.52;;;6.82;;
51006;SDS011;37034;47.886;-3.904;2023-09-07T06:24:36;41.75;;;8.60;;
51006;SDS011;37034;47.886;-3.904;2023-09-07T06:27:02;39.03;;;7.47;;
51006;SDS011;37034;47.886;-3.904;2023-09-07T06:29:28;41.58;;;7.13;;
51006;SDS011;37034;47.886;-3.904;2023-09-07T06:31:53;38.85;;;7.95;;
51006;SDS011;37034;47.886;-3.904;2023-09-07T06:34:19;34.13;;;7.03;;
51006;SDS011;37034;47.886;-3.904;2023-09-07T06:36:45;36.45;;;7.82;;
51006;SDS011;37034;47.886;-3.904;2023-09-07T06:39:10;28.25;;;6.80;;
51006;SDS011;37034;47.886;-3.904;2023-09-07T06:41:36;37.67;;;7.45;;
51006;SDS011;37034;47.886;-3.904;2023-09-07T06:44:01;46.88;;;7.28;;
51006;SDS011;37034;47.886;-3.904;2023-09-07T06:46:27;36.60;;;6.80;;
51006;SDS011;37034;47.886;-3.904;2023-09-07T06:48:53;37.40;;;7.13;;
51006;SDS011;37034;47.886;-3.904;2023-09-07T06:51:18;34.45;;;6.32;;
51006;SDS011;37034;47.886;-3.904;2023-09-07T06:53:44;35.90;;;7.07;;
51006;SDS011;37034;47.886;-3.904;2023-09-07T06:56:10;33.80;;;6.65;;
51006;SDS011;37034;47.886;-3.904;2023-09-07T06:58:35;30.45;;;6.80;;
51006;SDS011;37034;47.886;-3.904;2023-09-07T07:01:01;28.30;;;7.00;;
51006;SDS011;37034;47.886;-3.904;2023-09-07T07:03:28;28.95;;;5.85;;
51006;SDS011;37034;47.886;-3.904;2023-09-07T07:05:54;34.13;;;6.90;;
51006;SDS011;37034;47.886;-3.904;2023-09-07T07:08:20;34.10;;;6.68;;
51006;SDS011;37034;47.886;-3.904;2023-09-07T07:10:46;34.63;;;7.22;;
51006;SDS011;37034;47.886;-3.904;2023-09-07T07:13:12;38.35;;;7.10;;
51006;SDS011;37034;47.886;-3.904;2023-09-07T07:15:38;32.05;;;6.60;;
51006;SDS011;37034;47.886;-3.904;2023-09-07T07:18:03;28.02;;;6.50;;
51006;SDS011;37034;47.886;-3.904;2023-09-07T07:20:37;37.83;;;6.53;;
51006;SDS011;37034;47.886;-3.904;2023-09-07T07:23:03;38.83;;;6.95;;
51006;SDS011;37034;47.886;-3.904;2023-09-07T07:25:31;33.15;;;6.43;;
51006;SDS011;37034;47.886;-3.904;2023-09-07T07:27:58;41.55;;;6.75;;
51006;SDS011;37034;47.886;-3.904;2023-09-07T07:30:30;41.60;;;7.15;;
51006;SDS011;37034;47.886;-3.904;2023-09-07T07:32:56;29.17;;;6.57;;
51006;SDS011;37034;47.886;-3.904;2023-09-07T07:35:22;28.52;;;6.32;;
51006;SDS011;37034;47.886;-3.904;2023-09-07T07:37:49;33.70;;;6.95;;
51006;SDS011;37034;47.886;-3.904;2023-09-07T07:40:15;34.78;;;7.63;;
51006;SDS011;37034;47.886;-3.904;2023-09-07T07:42:42;27.35;;;6.78;;
51006;SDS011;37034;47.886;-3.904;2023-09-07T07:47:34;34.55;;;6.55;;
51006;SDS011;37034;47.886;-3.904;2023-09-07T07:50:00;29.05;;;6.00;;
51006;SDS011;37034;47.886;-3.904;2023-09-07T07:52:26;35.92;;;7.20;;
51006;SDS011;37034;47.886;-3.904;2023-09-07T07:54:52;28.08;;;6.45;;
51006;SDS011;37034;47.886;-3.904;2023-09-07T07:57:18;39.75;;;6.97;;
51006;SDS011;37034;47.886;-3.904;2023-09-07T07:59:44;27.15;;;6.88;;
51006;SDS011;37034;47.886;-3.904;2023-09-07T08:02:09;38.03;;;8.05;;
51006;SDS011;37034;47.886;-3.904;2023-09-07T08:04:35;35.92;;;8.63;;
51006;SDS011;37034;47.886;-3.904;2023-09-07T08:07:01;38.45;;;7.63;;
51006;SDS011;37034;47.886;-3.904;2023-09-07T08:09:30;37.42;;;7.50;;
51006;SDS011;37034;47.886;-3.904;2023-09-07T08:11:56;32.20;;;7.40;;
51006;SDS011;37034;47.886;-3.904;2023-09-07T08:14:25;38.38;;;8.25;;
51006;SDS011;37034;47.886;-3.904;2023-09-07T08:16:52;29.85;;;7.30;;
51006;SDS011;37034;47.886;-3.904;2023-09-07T08:19:18;31.38;;;7.72;;
51006;SDS011;37034;47.886;-3.904;2023-09-07T08:21:44;28.42;;;6.97;;
51006;SDS011;37034;47.886;-3.904;2023-09-07T08:24:12;35.08;;;7.68;;
51006;SDS011;37034;47.886;-3.904;2023-09-07T08:26:47;32.00;;;6.60;;
51006;SDS011;37034;47.886;-3.904;2023-09-07T08:29:16;26.20;;;6.38;;
51006;SDS011;37034;47.886;-3.904;2023-09-07T08:31:45;29.63;;;6.85;;
51006;SDS011;37034;47.886;-3.904;2023-09-07T08:34:13;37.72;;;7.10;;
51006;SDS011;37034;47.886;-3.904;2023-09-07T08:36:44;28.33;;;6.45;;
51006;SDS011;37034;47.886;-3.904;2023-09-07T08:39:12;28.70;;;7.13;;
51006;SDS011;37034;47.886;-3.904;2023-09-07T08:44:16;27.33;;;5.90;;
51006;SDS011;37034;47.886;-3.904;2023-09-07T08:46:42;26.52;;;6.90;;
51006;SDS011;37034;47.886;-3.904;2023-09-07T08:49:10;48.55;;;7.75;;
51006;SDS011;37034;47.886;-3.904;2023-09-07T08:51:36;39.38;;;7.70;;
51006;SDS011;37034;47.886;-3.904;2023-09-07T08:54:06;34.97;;;7.07;;
51006;SDS011;37034;47.886;-3.904;2023-09-07T08:56:33;32.38;;;7.00;;
51006;SDS011;37034;47.886;-3.904;2023-09-07T08:58:59;34.20;;;7.15;;
51006;SDS011;37034;47.886;-3.904;2023-09-07T09:03:50;29.55;;;7.18;;
51006;SDS011;37034;47.886;-3.904;2023-09-07T09:06:17;35.25;;;7.95;;
51006;SDS011;37034;47.886;-3.904;2023-09-07T09:08:46;20.95;;;6.13;;
51006;SDS011;37034;47.886;-3.904;2023-09-07T09:11:15;32.90;;;6.78;;
51006;SDS011;37034;47.886;-3.904;2023-09-07T09:13:45;24.05;;;6.93;;
51006;SDS011;37034;47.886;-3.904;2023-09-07T09:16:12;28.17;;;6.65;;
51006;SDS011;37034;47.886;-3.904;2023-09-07T09:18:48;26.95;;;5.72;;
51006;SDS011;37034;47.886;-3.904;2023-09-07T09:21:17;24.70;;;6.05;;
51006;SDS011;37034;47.886;-3.904;2023-09-07T09:23:46;25.15;;;6.38;;
51006;SDS011;37034;47.886;-3.904;2023-09-07T09:26:14;25.48;;;7.45;;
51006;SDS011;37034;47.886;-3.904;2023-09-07T09:31:07;27.17;;;6.87;;
51006;SDS011;37034;47.886;-3.904;2023-09-07T09:33:37;33.28;;;7.05;;
51006;SDS011;37034;47.886;-3.904;2023-09-07T09:36:04;26.27;;;6.20;;
51006;SDS011;37034;47.886;-3.904;2023-09-07T09:38:31;22.83;;;5.93;;
51006;SDS011;37034;47.886;-3.904;2023-09-07T09:40:58;34.40;;;7.47;;
51006;SDS011;37034;47.886;-3.904;2023-09-07T09:43:24;28.33;;;6.22;;
51006;SDS011;37034;47.886;-3.904;2023-09-07T09:45:50;23.13;;;6.97;;
51006;SDS011;37034;47.886;-3.904;2023-09-07T09:48:21;21.55;;;6.85;;
51006;SDS011;37034;47.886;-3.904;2023-09-07T09:50:47;25.65;;;6.63;;
51006;SDS011;37034;47.886;-3.904;2023-09-07T09:53:17;20.23;;;6.78;;
51006;SDS011;37034;47.886;-3.904;2023-09-07T09:55:48;28.50;;;6.68;;
51006;SDS011;37034;47.886;-3.904;2023-09-07T09:58:15;21.92;;;5.60;;
51006;SDS011;37034;47.886;-3.904;2023-09-07T10:00:45;31.50;;;6.90;;
51006;SDS011;37034;47.886;-3.904;2023-09-07T10:03:23;30.15;;;6.00;;
51006;SDS011;37034;47.886;-3.904;2023-09-07T10:05:52;23.55;;;6.00;;
51006;SDS011;37034;47.886;-3.904;2023-09-07T10:10:48;31.98;;;7.25;;
51006;SDS011;37034;47.886;-3.904;2023-09-07T10:13:28;25.65;;;5.95;;
51006;SDS011;37034;47.886;-3.904;2023-09-07T10:16:13;25.15;;;5.80;;
51006;SDS011;37034;47.886;-3.904;2023-09-07T10:18:39;26.63;;;5.57;;
51006;SDS011;37034;47.886;-3.904;2023-09-07T10:23:48;25.92;;;6.43;;
51006;SDS011;37034;47.886;-3.904;2023-09-07T10:26:17;25.67;;;6.35;;
51006;SDS011;37034;47.886;-3.904;2023-09-07T10:28:46;27.92;;;7.20;;
51006;SDS011;37034;47.886;-3.904;2023-09-07T10:33:42;30.25;;;6.88;;
51006;SDS011;37034;47.886;-3.904;2023-09-07T10:36:08;25.70;;;6.57;;
51006;SDS011;37034;47.886;-3.904;2023-09-07T10:38:44;32.95;;;7.68;;
51006;SDS011;37034;47.886;-3.904;2023-09-07T10:43:36;23.63;;;6.75;;
51006;SDS011;37034;47.886;-3.904;2023-09-07T10:46:17;29.70;;;6.03;;
51006;SDS011;37034;47.886;-3.904;2023-09-07T10:48:45;26.00;;;6.63;;
51006;SDS011;37034;47.886;-3.904;2023-09-07T10:51:13;23.83;;;6.60;;
51006;SDS011;37034;47.886;-3.904;2023-09-07T10:56:05;15.88;;;5.93;;
51006;SDS011;37034;47.886;-3.904;2023-09-07T10:58:31;24.00;;;6.47;;
51006;SDS011;37034;47.886;-3.904;2023-09-07T11:00:59;28.42;;;6.53;;
51006;SDS011;37034;47.886;-3.904;2023-09-07T11:03:26;26.98;;;6.57;;
51006;SDS011;37034;47.886;-3.904;2023-09-07T11:05:57;22.15;;;7.38;;
51006;SDS011;37034;47.886;-3.904;2023-09-07T11:10:55;28.23;;;6.43;;
51006;SDS011;37034;47.886;-3.904;2023-09-07T11:15:48;24.33;;;7.10;;
51006;SDS011;37034;47.886;-3.904;2023-09-07T11:18:19;27.75;;;7.55;;
51006;SDS011;37034;47.886;-3.904;2023-09-07T11:20:46;27.65;;;6.75;;
51006;SDS011;37034;47.886;-3.904;2023-09-07T11:23:12;23.65;;;6.68;;
51006;SDS011;37034;47.886;-3.904;2023-09-07T11:28:04;32.25;;;6.85;;
51006;SDS011;37034;47.886;-3.904;2023-09-07T11:30:31;29.80;;;6.90;;
51006;SDS011;37034;47.886;-3.904;2023-09-07T11:33:02;36.20;;;8.27;;
51006;SDS011;37034;47.886;-3.904;2023-09-07T11:35:33;27.70;;;7.07;;
51006;SDS011;37034;47.886;-3.904;2023-09-07T11:38:03;28.00;;;6.65;;
51006;SDS011;37034;47.886;-3.904;2023-09-07T11:40:30;34.50;;;7.38;;
51006;SDS011;37034;47.886;-3.904;2023-09-07T11:42:56;31.35;;;7.35;;
51006;SDS011;37034;47.886;-3.904;2023-09-07T11:47:47;31.52;;;7.25;;
51006;SDS011;37034;47.886;-3.904;2023-09-07T11:52:42;31.15;;;7.35;;
51006;SDS011;37034;47.886;-3.904;2023-09-07T11:57:35;36.80;;;7.35;;
51006;SDS011;37034;47.886;-3.904;2023-09-07T12:00:04;29.92;;;6.55;;
51006;SDS011;37034;47.886;-3.904;2023-09-07T12:02:36;25.25;;;6.90;;
51006;SDS011;37034;47.886;-3.904;2023-09-07T12:05:03;30.60;;;7.10;;
51006;SDS011;37034;47.886;-3.904;2023-09-07T12:07:29;28.73;;;7.93;;
51006;SDS011;37034;47.886;-3.904;2023-09-07T12:09:55;31.10;;;7.15;;
51006;SDS011;37034;47.886;-3.904;2023-09-07T12:12:22;35.30;;;7.43;;
51006;SDS011;37034;47.886;-3.904;2023-09-07T12:14:48;28.02;;;7.05;;
51006;SDS011;37034;47.886;-3.904;2023-09-07T12:19:39;25.63;;;6.53;;
51006;SDS011;37034;47.886;-3.904;2023-09-07T12:22:07;29.95;;;6.57;;
51006;SDS011;37034;47.886;-3.904;2023-09-07T12:24:33;22.67;;;6.70;;
51006;SDS011;37034;47.886;-3.904;2023-09-07T12:29:25;29.25;;;6.47;;
51006;SDS011;37034;47.886;-3.904;2023-09-07T12:34:16;39.75;;;8.20;;
51006;SDS011;37034;47.886;-3.904;2023-09-07T12:39:07;27.55;;;6.88;;
51006;SDS011;37034;47.886;-3.904;2023-09-07T12:41:33;26.02;;;6.97;;
51006;SDS011;37034;47.886;-3.904;2023-09-07T12:46:24;28.08;;;7.65;;
51006;SDS011;37034;47.886;-3.904;2023-09-07T12:51:15;35.10;;;7.85;;
51006;SDS011;37034;47.886;-3.904;2023-09-07T12:56:07;27.92;;;6.68;;
51006;SDS011;37034;47.886;-3.904;2023-09-07T12:58:32;23.45;;;6.78;;
51006;SDS011;37034;47.886;-3.904;2023-09-07T13:03:24;27.83;;;7.18;;
51006;SDS011;37034;47.886;-3.904;2023-09-07T13:08:15;30.95;;;7.15;;
51006;SDS011;37034;47.886;-3.904;2023-09-07T13:13:06;36.28;;;7.30;;
51006;SDS011;37034;47.886;-3.904;2023-09-07T13:15:33;30.38;;;7.20;;
51006;SDS011;37034;47.886;-3.904;2023-09-07T13:17:58;29.65;;;7.68;;
51006;SDS011;37034;47.886;-3.904;2023-09-07T13:20:24;28.38;;;7.43;;
51006;SDS011;37034;47.886;-3.904;2023-09-07T13:22:50;38.45;;;8.35;;
51006;SDS011;37034;47.886;-3.904;2023-09-07T13:25:17;33.35;;;8.27;;
51006;SDS011;37034;47.886;-3.904;2023-09-07T13:27:42;33.47;;;6.80;;
51006;SDS011;37034;47.886;-3.904;2023-09-07T13:32:34;33.00;;;8.35;;
51006;SDS011;37034;47.886;-3.904;2023-09-07T13:37:25;35.38;;;7.50;;
51006;SDS011;37034;47.886;-3.904;2023-09-07T13:42:17;35.78;;;6.97;;
51006;SDS011;37034;47.886;-3.904;2023-09-07T13:44:42;33.25;;;6.93;;
51006;SDS011;37034;47.886;-3.904;2023-09-07T13:47:10;39.22;;;7.38;;
51006;SDS011;37034;47.886;-3.904;2023-09-07T13:49:36;42.38;;;7.25;;
51006;SDS011;37034;47.886;-3.904;2023-09-07T13:54:28;36.70;;;6.95;;
51006;SDS011;37034;47.886;-3.904;2023-09-07T13:56:54;35.15;;;7.28;;
51006;SDS011;37034;47.886;-3.904;2023-09-07T14:01:45;33.10;;;6.95;;
51006;SDS011;37034;47.886;-3.904;2023-09-07T14:06:36;36.88;;;7.03;;
51006;SDS011;37034;47.886;-3.904;2023-09-07T14:11:27;37.95;;;7.43;;
51006;SDS011;37034;47.886;-3.904;2023-09-07T14:16:19;39.80;;;6.88;;
51006;SDS011;37034;47.886;-3.904;2023-09-07T14:18:46;29.98;;;7.18;;
51006;SDS011;37034;47.886;-3.904;2023-09-07T14:21:13;34.17;;;8.00;;
51006;SDS011;37034;47.886;-3.904;2023-09-07T14:23:40;36.67;;;7.30;;
51006;SDS011;37034;47.886;-3.904;2023-09-07T14:26:07;35.08;;;7.40;;
51006;SDS011;37034;47.886;-3.904;2023-09-07T14:28:33;31.10;;;8.68;;
51006;SDS011;37034;47.886;-3.904;2023-09-07T14:30:59;45.35;;;7.18;;
51006;SDS011;37034;47.886;-3.904;2023-09-07T14:33:28;32.20;;;7.47;;
51006;SDS011;37034;47.886;-3.904;2023-09-07T14:35:54;25.60;;;6.38;;
51006;SDS011;37034;47.886;-3.904;2023-09-07T14:38:20;30.45;;;6.57;;
51006;SDS011;37034;47.886;-3.904;2023-09-07T14:40:46;31.45;;;6.88;;
51006;SDS011;37034;47.886;-3.904;2023-09-07T14:43:14;35.03;;;7.35;;
51006;SDS011;37034;47.886;-3.904;2023-09-07T14:45:39;44.58;;;7.78;;
51006;SDS011;37034;47.886;-3.904;2023-09-07T14:50:31;34.80;;;7.22;;
51006;SDS011;37034;47.886;-3.904;2023-09-07T14:52:57;29.25;;;6.57;;
51006;SDS011;37034;47.886;-3.904;2023-09-07T14:57:48;29.88;;;6.82;;
51006;SDS011;37034;47.886;-3.904;2023-09-07T15:00:14;28.73;;;6.50;;
51006;SDS011;37034;47.886;-3.904;2023-09-07T15:02:39;36.35;;;7.53;;
51006;SDS011;37034;47.886;-3.904;2023-09-07T15:05:05;33.97;;;6.63;;
51006;SDS011;37034;47.886;-3.904;2023-09-07T15:09:57;32.35;;;6.15;;
51006;SDS011;37034;47.886;-3.904;2023-09-07T15:14:48;32.45;;;6.70;;
51006;SDS011;37034;47.886;-3.904;2023-09-07T15:17:14;23.10;;;6.18;;
51006;SDS011;37034;47.886;-3.904;2023-09-07T15:19:41;27.27;;;6.22;;
51006;SDS011;37034;47.886;-3.904;2023-09-07T15:22:07;41.47;;;6.78;;
51006;SDS011;37034;47.886;-3.904;2023-09-07T15:24:33;32.35;;;5.72;;
51006;SDS011;37034;47.886;-3.904;2023-09-07T15:29:32;34.72;;;6.53;;
51006;SDS011;37034;47.886;-3.904;2023-09-07T15:31:57;26.35;;;6.88;;
51006;SDS011;37034;47.886;-3.904;2023-09-07T15:36:49;33.58;;;6.03;;
51006;SDS011;37034;47.886;-3.904;2023-09-07T15:41:40;34.60;;;7.55;;
51006;SDS011;37034;47.886;-3.904;2023-09-07T15:46:31;33.13;;;6.70;;
51006;SDS011;37034;47.886;-3.904;2023-09-07T15:48:57;27.67;;;6.93;;
51006;SDS011;37034;47.886;-3.904;2023-09-07T15:53:48;33.33;;;6.82;;
51006;SDS011;37034;47.886;-3.904;2023-09-07T15:58:39;28.85;;;6.15;;
51006;SDS011;37034;47.886;-3.904;2023-09-07T16:03:30;27.42;;;6.05;;
51006;SDS011;37034;47.886;-3.904;2023-09-07T16:05:56;33.60;;;7.45;;
51006;SDS011;37034;47.886;-3.904;2023-09-07T16:10:53;29.52;;;6.18;;
51006;SDS011;37034;47.886;-3.904;2023-09-07T16:13:19;33.05;;;6.95;;
51006;SDS011;37034;47.886;-3.904;2023-09-07T16:18:11;29.58;;;6.78;;